sensor_id;sensor_type;location;lat;lon;timestamp;pressure;altitude;pressure_sealevel;temperature;humidity
76108;BME280;64834;52.516;10.528;2023-10-09T00:00:15;101340.31;;;11.69;99.16
76108;BME280;64834;52.516;10.528;2023-10-09T00:03:18;101335.19;;;11.70;99.32
76108;BME280;64834;52.516;10.528;2023-10-09T00:05:44;101369.59;;;11.61;99.47
76108;BME280;64834;52.516;10.528;2023-10-09T00:08:09;101370.84;;;11.53;99.77
76108;BME280;64834;52.516;10.528;2023-10-09T00:10:36;101366.06;;;11.61;99.97
76108;BME280;64834;52.516;10.528;2023-10-09T00:13:13;101363.34;;;11.59;100.00
76108;BME280;64834;52.516;10.528;2023-10-09T00:15:39;101351.97;;;11.59;100.00
76108;BME280;64834;52.516;10.528;2023-10-09T00:18:04;101340.38;;;11.55;100.00
76108;BME280;64834;52.516;10.528;2023-10-09T00:20:30;101337.06;;;11.58;100.00
76108;BME280;64834;52.516;10.528;2023-10-09T00:22:55;101313.94;;;11.66;99.71
76108;BME280;64834;52.516;10.528;2023-10-09T00:25:21;101305.69;;;11.59;99.01
76108;BME280;64834;52.516;10.528;2023-10-09T00:27:49;101289.97;;;11.59;99.42
76108;BME280;64834;52.516;10.528;2023-10-09T00:30:16;101273.31;;;11.59;99.40
76108;BME280;64834;52.516;10.528;2023-10-09T00:32:43;101272.44;;;11.58;99.47
76108;BME280;64834;52.516;10.528;2023-10-09T00:35:24;101283.59;;;11.56;99.49
76108;BME280;64834;52.516;10.528;2023-10-09T00:38:03;101262.56;;;11.54;99.87
76108;BME280;64834;52.516;10.528;2023-10-09T00:40:39;101255.41;;;11.52;100.00
76108;BME280;64834;52.516;10.528;2023-10-09T00:43:11;101258.03;;;11.52;100.00
76108;BME280;64834;52.516;10.528;2023-10-09T00:45:38;101248.09;;;11.46;100.00
76108;BME280;64834;52.516;10.528;2023-10-09T00:48:07;101250.41;;;11.42;100.00
76108;BME280;64834;52.516;10.528;2023-10-09T00:50:34;101236.78;;;11.47;100.00
76108;BME280;64834;52.516;10.528;2023-10-09T00:53:01;101223.59;;;11.46;100.00
76108;BME280;64834;52.516;10.528;2023-10-09T00:55:36;101231.09;;;11.40;100.00
76108;BME280;64834;52.516;10.528;2023-10-09T00:58:08;101224.06;;;11.39;100.00
76108;BME280;64834;52.516;10.528;2023-10-09T01:00:41;101222.94;;;11.35;100.00
76108;BME280;64834;52.516;10.528;2023-10-09T01:03:10;101223.75;;;11.34;100.00
76108;BME280;64834;52.516;10.528;2023-10-09T01:05:39;101224.28;;;11.28;100.00
76108;BME280;64834;52.516;10.528;2023-10-09T01:08:16;101232.09;;;11.42;100.00
76108;BME280;64834;52.516;10.528;2023-10-09T01:10:50;101222.69;;;11.45;100.00
76108;BME280;64834;52.516;10.528;2023-10-09T01:13:18;101223.41;;;11.43;100.00
76108;BME280;64834;52.516;10.528;2023-10-09T01:15:44;101236.34;;;11.40;100.00
76108;BME280;64834;52.516;10.528;2023-10-09T01:18:10;101244.63;;;11.32;100.00
76108;BME280;64834;52.516;10.528;2023-10-09T01:20:37;101256.34;;;11.24;100.00
76108;BME280;64834;52.516;10.528;2023-10-09T01:23:10;101259.78;;;11.23;100.00
76108;BME280;64834;52.516;10.528;2023-10-09T01:25:35;101267.63;;;11.23;100.00
76108;BME280;64834;52.516;10.528;2023-10-09T01:28:09;101270.16;;;11.22;100.00
76108;BME280;64834;52.516;10.528;2023-10-09T01:30:35;101262.41;;;11.23;100.00
76108;BME280;64834;52.516;10.528;2023-10-09T01:33:07;101243.69;;;11.17;100.00
76108;BME280;64834;52.516;10.528;2023-10-09T01:35:40;101244.78;;;11.21;100.00
76108;BME280;64834;52.516;10.528;2023-10-09T01:38:12;101247.50;;;11.22;100.00
76108;BME280;64834;52.516;10.528;2023-10-09T01:40:38;101256.16;;;11.21;100.00
76108;BME280;64834;52.516;10.528;2023-10-09T01:43:04;101259.22;;;11.14;100.00
76108;BME280;64834;52.516;10.528;2023-10-09T01:45:29;101248.97;;;11.04;100.00
76108;BME280;64834;52.516;10.528;2023-10-09T01:47:55;101247.63;;;11.11;100.00
76108;BME280;64834;52.516;10.528;2023-10-09T01:50:20;101255.41;;;11.09;100.00
76108;BME280;64834;52.516;10.528;2023-10-09T01:53:00;101251.13;;;10.96;100.00
76108;BME280;64834;52.516;10.528;2023-10-09T01:55:31;101248.59;;;10.98;100.00
76108;BME280;64834;52.516;10.528;2023-10-09T01:58:05;101242.34;;;10.96;100.00
76108;BME280;64834;52.516;10.528;2023-10-09T02:00:32;101238.84;;;10.95;100.00
76108;BME280;64834;52.516;10.528;2023-10-09T02:03:07;101221.88;;;11.03;100.00
76108;BME280;64834;52.516;10.528;2023-10-09T02:05:42;101213.13;;;11.03;100.00
76108;BME280;64834;52.516;10.528;2023-10-09T02:08:07;101201.13;;;11.06;100.00
76108;BME280;64834;52.516;10.528;2023-10-09T02:10:32;101200.94;;;11.03;100.00
76108;BME280;64834;52.516;10.528;2023-10-09T02:12:59;101183.50;;;11.04;100.00
76108;BME280;64834;52.516;10.528;2023-10-09T02:15:30;101177.19;;;11.00;100.00
76108;BME280;64834;52.516;10.528;2023-10-09T02:23:28;101150.81;;;11.12;100.00
76108;BME280;64834;52.516;10.528;2023-10-09T02:26:12;101148.19;;;11.12;100.00
76108;BME280;64834;52.516;10.528;2023-10-09T02:28:51;101139.59;;;11.00;100.00
76108;BME280;64834;52.516;10.528;2023-10-09T02:31:30;101144.66;;;10.97;100.00
76108;BME280;64834;52.516;10.528;2023-10-09T02:34:08;101131.56;;;10.97;100.00
76108;BME280;64834;52.516;10.528;2023-10-09T02:36:34;101118.91;;;10.90;100.00
76108;BME280;64834;52.516;10.528;2023-10-09T02:39:03;101123.94;;;10.87;100.00
76108;BME280;64834;52.516;10.528;2023-10-09T02:41:46;101117.38;;;10.93;100.00
76108;BME280;64834;52.516;10.528;2023-10-09T02:44:14;101116.22;;;10.88;100.00
76108;BME280;64834;52.516;10.528;2023-10-09T02:46:41;101107.34;;;10.86;100.00
76108;BME280;64834;52.516;10.528;2023-10-09T02:49:06;101099.47;;;10.86;100.00
76108;BME280;64834;52.516;10.528;2023-10-09T02:51:34;101107.06;;;10.82;100.00
76108;BME280;64834;52.516;10.528;2023-10-09T02:54:06;101113.31;;;10.84;100.00
76108;BME280;64834;52.516;10.528;2023-10-09T02:56:47;101094.16;;;10.85;100.00
76108;BME280;64834;52.516;10.528;2023-10-09T02:59:20;101085.78;;;10.90;100.00
76108;BME280;64834;52.516;10.528;2023-10-09T03:01:47;101073.50;;;10.89;100.00
76108;BME280;64834;52.516;10.528;2023-10-09T03:04:13;101062.28;;;10.92;100.00
76108;BME280;64834;52.516;10.528;2023-10-09T03:06:40;101062.66;;;10.98;100.00
76108;BME280;64834;52.516;10.528;2023-10-09T03:09:16;101052.72;;;10.92;100.00
76108;BME280;64834;52.516;10.528;2023-10-09T03:11:49;101046.06;;;10.97;100.00
76108;BME280;64834;52.516;10.528;2023-10-09T03:14:21;101032.88;;;10.96;100.00
76108;BME280;64834;52.516;10.528;2023-10-09T03:16:50;101035.22;;;10.91;100.00
76108;BME280;64834;52.516;10.528;2023-10-09T03:19:15;101028.53;;;10.96;100.00
76108;BME280;64834;52.516;10.528;2023-10-09T03:21:41;101023.38;;;10.98;100.00
76108;BME280;64834;52.516;10.528;2023-10-09T03:24:07;101020.59;;;10.95;100.00
76108;BME280;64834;52.516;10.528;2023-10-09T03:26:33;101020.69;;;10.96;100.00
76108;BME280;64834;52.516;10.528;2023-10-09T03:28:59;101014.47;;;10.94;100.00
76108;BME280;64834;52.516;10.528;2023-10-09T03:31:34;101016.25;;;10.95;100.00
76108;BME280;64834;52.516;10.528;2023-10-09T03:34:00;101010.81;;;10.92;100.00
76108;BME280;64834;52.516;10.528;2023-10-09T03:36:25;101009.94;;;10.92;100.00
76108;BME280;64834;52.516;10.528;2023-10-09T03:38:52;101001.38;;;10.94;100.00
76108;BME280;64834;52.516;10.528;2023-10-09T03:41:20;101009.47;;;10.99;100.00
76108;BME280;64834;52.516;10.528;2023-10-09T03:43:46;101003.34;;;10.98;100.00
76108;BME280;64834;52.516;10.528;2023-10-09T03:46:11;101005.94;;;10.98;100.00
76108;BME280;64834;52.516;10.528;2023-10-09T03:48:47;100985.09;;;11.00;100.00
76108;BME280;64834;52.516;10.528;2023-10-09T03:51:13;100986.09;;;11.02;100.00
76108;BME280;64834;52.516;10.528;2023-10-09T03:53:49;100995.47;;;10.98;100.00
76108;BME280;64834;52.516;10.528;2023-10-09T03:56:16;101001.81;;;11.02;100.00
76108;BME280;64834;52.516;10.528;2023-10-09T03:58:43;101006.16;;;11.01;100.00
76108;BME280;64834;52.516;10.528;2023-10-09T04:01:14;100997.00;;;11.10;100.00
76108;BME280;64834;52.516;10.528;2023-10-09T04:03:49;100991.78;;;11.10;100.00
76108;BME280;64834;52.516;10.528;2023-10-09T04:06:23;100977.69;;;11.07;100.00
76108;BME280;64834;52.516;10.528;2023-10-09T04:08:53;100977.44;;;11.03;100.00
76108;BME280;64834;52.516;10.528;2023-10-09T04:11:20;100987.97;;;11.04;100.00
76108;BME280;64834;52.516;10.528;2023-10-09T04:13:48;100987.81;;;11.01;100.00
76108;BME280;64834;52.516;10.528;2023-10-09T04:16:15;101000.09;;;11.02;100.00
76108;BME280;64834;52.516;10.528;2023-10-09T04:18:55;100987.72;;;11.00;100.00
76108;BME280;64834;52.516;10.528;2023-10-09T04:21:22;100994.78;;;11.01;100.00
76108;BME280;64834;52.516;10.528;2023-10-09T04:24:07;100998.91;;;10.97;100.00
76108;BME280;64834;52.516;10.528;2023-10-09T04:26:39;100987.16;;;11.05;100.00
76108;BME280;64834;52.516;10.528;2023-10-09T04:29:10;100989.97;;;11.08;100.00
76108;BME280;64834;52.516;10.528;2023-10-09T04:31:54;100983.56;;;11.03;100.00
76108;BME280;64834;52.516;10.528;2023-10-09T04:34:25;100983.66;;;11.05;100.00
76108;BME280;64834;52.516;10.528;2023-10-09T04:36:56;100985.72;;;11.11;100.00
76108;BME280;64834;52.516;10.528;2023-10-09T04:39:25;100985.38;;;11.04;100.00
76108;BME280;64834;52.516;10.528;2023-10-09T04:42:02;100986.91;;;11.01;100.00
76108;BME280;64834;52.516;10.528;2023-10-09T04:44:46;100979.78;;;10.98;100.00
76108;BME280;64834;52.516;10.528;2023-10-09T04:47:28;100981.75;;;11.02;100.00
76108;BME280;64834;52.516;10.528;2023-10-09T04:50:08;100976.97;;;11.10;100.00
76108;BME280;64834;52.516;10.528;2023-10-09T04:52:34;100981.03;;;11.20;100.00
76108;BME280;64834;52.516;10.528;2023-10-09T04:55:00;100980.56;;;11.12;100.00
76108;BME280;64834;52.516;10.528;2023-10-09T04:57:35;100981.03;;;11.05;100.00
76108;BME280;64834;52.516;10.528;2023-10-09T05:00:17;100984.66;;;11.07;100.00
76108;BME280;64834;52.516;10.528;2023-10-09T05:02:53;100976.25;;;11.13;100.00
76108;BME280;64834;52.516;10.528;2023-10-09T05:05:23;100985.91;;;11.14;100.00
76108;BME280;64834;52.516;10.528;2023-10-09T05:10:59;100973.38;;;11.08;100.00
76108;BME280;64834;52.516;10.528;2023-10-09T05:13:25;100974.34;;;11.10;100.00
76108;BME280;64834;52.516;10.528;2023-10-09T05:16:17;100986.53;;;11.10;100.00
76108;BME280;64834;52.516;10.528;2023-10-09T05:18:58;100991.69;;;11.08;100.00
76108;BME280;64834;52.516;10.528;2023-10-09T05:21:34;100985.63;;;11.09;100.00
76108;BME280;64834;52.516;10.528;2023-10-09T05:24:01;100990.25;;;11.13;100.00
76108;BME280;64834;52.516;10.528;2023-10-09T05:26:45;100975.88;;;11.21;100.00
76108;BME280;64834;52.516;10.528;2023-10-09T05:29:15;100981.81;;;11.19;100.00
76108;BME280;64834;52.516;10.528;2023-10-09T05:32:03;100985.38;;;11.19;100.00
76108;BME280;64834;52.516;10.528;2023-10-09T05:34:33;100991.97;;;11.13;100.00
76108;BME280;64834;52.516;10.528;2023-10-09T05:37:08;100993.66;;;11.12;100.00
76108;BME280;64834;52.516;10.528;2023-10-09T05:39:44;100995.13;;;11.07;100.00
76108;BME280;64834;52.516;10.528;2023-10-09T05:42:23;100997.41;;;11.01;100.00
76108;BME280;64834;52.516;10.528;2023-10-09T05:44:53;101009.22;;;11.09;100.00
76108;BME280;64834;52.516;10.528;2023-10-09T05:47:41;101029.06;;;11.05;100.00
76108;BME280;64834;52.516;10.528;2023-10-09T05:50:23;101020.84;;;10.99;100.00
76108;BME280;64834;52.516;10.528;2023-10-09T05:52:53;101027.28;;;10.90;100.00
76108;BME280;64834;52.516;10.528;2023-10-09T05:55:23;101015.00;;;10.89;100.00
76108;BME280;64834;52.516;10.528;2023-10-09T05:57:52;101028.25;;;10.92;100.00
76108;BME280;64834;52.516;10.528;2023-10-09T06:00:32;101018.59;;;10.91;100.00
76108;BME280;64834;52.516;10.528;2023-10-09T06:03:16;101005.34;;;11.02;100.00
76108;BME280;64834;52.516;10.528;2023-10-09T06:05:48;100996.03;;;11.07;100.00
76108;BME280;64834;52.516;10.528;2023-10-09T06:08:29;100997.41;;;11.01;100.00
76108;BME280;64834;52.516;10.528;2023-10-09T06:11:11;100997.22;;;11.13;100.00
76108;BME280;64834;52.516;10.528;2023-10-09T06:13:57;101001.81;;;11.02;100.00
76108;BME280;64834;52.516;10.528;2023-10-09T06:16:32;101000.47;;;10.94;100.00
76108;BME280;64834;52.516;10.528;2023-10-09T06:19:10;100984.19;;;10.99;100.00
76108;BME280;64834;52.516;10.528;2023-10-09T06:21:46;100995.47;;;10.98;100.00
76108;BME280;64834;52.516;10.528;2023-10-09T06:24:21;101015.72;;;11.01;100.00
76108;BME280;64834;52.516;10.528;2023-10-09T06:26:48;101023.66;;;10.88;100.00
76108;BME280;64834;52.516;10.528;2023-10-09T06:29:23;101031.25;;;10.83;100.00
76108;BME280;64834;52.516;10.528;2023-10-09T06:32:08;101025.81;;;10.80;100.00
76108;BME280;64834;52.516;10.528;2023-10-09T06:34:58;101032.16;;;10.84;100.00
76108;BME280;64834;52.516;10.528;2023-10-09T06:37:45;101039.25;;;10.86;100.00
76108;BME280;64834;52.516;10.528;2023-10-09T06:40:36;101044.13;;;10.80;100.00
76108;BME280;64834;52.516;10.528;2023-10-09T06:43:08;101003.41;;;11.00;100.00
76108;BME280;64834;52.516;10.528;2023-10-09T06:45:43;101002.88;;;11.05;100.00
76108;BME280;64834;52.516;10.528;2023-10-09T06:48:12;101047.84;;;10.98;100.00
76108;BME280;64834;52.516;10.528;2023-10-09T06:51:03;101041.63;;;10.96;100.00
76108;BME280;64834;52.516;10.528;2023-10-09T06:53:33;101040.72;;;10.96;100.00
76108;BME280;64834;52.516;10.528;2023-10-09T06:56:16;101041.06;;;10.87;100.00
76108;BME280;64834;52.516;10.528;2023-10-09T06:59:08;101040.06;;;10.85;100.00
76108;BME280;64834;52.516;10.528;2023-10-09T07:01:47;101026.09;;;10.99;100.00
76108;BME280;64834;52.516;10.528;2023-10-09T07:04:33;101001.34;;;11.09;100.00
76108;BME280;64834;52.516;10.528;2023-10-09T07:06:59;101004.25;;;11.14;100.00
76108;BME280;64834;52.516;10.528;2023-10-09T07:09:27;100998.19;;;11.15;100.00
76108;BME280;64834;52.516;10.528;2023-10-09T07:12:08;100998.00;;;11.12;100.00
76108;BME280;64834;52.516;10.528;2023-10-09T07:14:35;100995.13;;;11.07;100.00
76108;BME280;64834;52.516;10.528;2023-10-09T07:17:05;101005.78;;;11.10;100.00
76108;BME280;64834;52.516;10.528;2023-10-09T07:19:52;101010.09;;;11.10;100.00
76108;BME280;64834;52.516;10.528;2023-10-09T07:22:21;101012.81;;;11.11;100.00
76108;BME280;64834;52.516;10.528;2023-10-09T07:24:52;101032.50;;;11.04;100.00
76108;BME280;64834;52.516;10.528;2023-10-09T07:30:10;101012.09;;;11.14;100.00
76108;BME280;64834;52.516;10.528;2023-10-09T07:32:58;101007.94;;;11.17;100.00
76108;BME280;64834;52.516;10.528;2023-10-09T07:35:43;101025.44;;;11.18;100.00
76108;BME280;64834;52.516;10.528;2023-10-09T07:38:18;101024.38;;;11.15;100.00
76108;BME280;64834;52.516;10.528;2023-10-09T07:41:01;101011.19;;;11.28;100.00
76108;BME280;64834;52.516;10.528;2023-10-09T07:43:31;101009.53;;;11.30;100.00
76108;BME280;64834;52.516;10.528;2023-10-09T07:46:04;101015.53;;;11.27;100.00
76108;BME280;64834;52.516;10.528;2023-10-09T07:48:31;101015.69;;;11.30;100.00
76108;BME280;64834;52.516;10.528;2023-10-09T07:51:17;101003.41;;;11.29;100.00
76108;BME280;64834;52.516;10.528;2023-10-09T07:53:45;101002.84;;;11.35;100.00
76108;BME280;64834;52.516;10.528;2023-10-09T07:56:13;101004.50;;;11.33;100.00
76108;BME280;64834;52.516;10.528;2023-10-09T07:58:46;101019.41;;;11.34;100.00
76108;BME280;64834;52.516;10.528;2023-10-09T08:01:13;101017.94;;;11.39;100.00
76108;BME280;64834;52.516;10.528;2023-10-09T08:03:42;101017.75;;;11.36;100.00
76108;BME280;64834;52.516;10.528;2023-10-09T08:06:11;101012.34;;;11.33;100.00
76108;BME280;64834;52.516;10.528;2023-10-09T08:08:55;100997.06;;;11.41;100.00
76108;BME280;64834;52.516;10.528;2023-10-09T08:11:33;100988.22;;;11.39;100.00
76108;BME280;64834;52.516;10.528;2023-10-09T08:14:14;100980.25;;;11.37;100.00
76108;BME280;64834;52.516;10.528;2023-10-09T08:16:59;100984.16;;;11.29;100.00
76108;BME280;64834;52.516;10.528;2023-10-09T08:19:47;101003.41;;;11.29;100.00
76108;BME280;64834;52.516;10.528;2023-10-09T08:22:29;101004.03;;;11.40;100.00
76108;BME280;64834;52.516;10.528;2023-10-09T08:24:55;100996.16;;;11.40;100.00
76108;BME280;64834;52.516;10.528;2023-10-09T08:29:55;101003.84;;;11.37;100.00
76108;BME280;64834;52.516;10.528;2023-10-09T08:32:40;101015.69;;;11.45;100.00
76108;BME280;64834;52.516;10.528;2023-10-09T08:35:08;100999.47;;;11.52;100.00
76108;BME280;64834;52.516;10.528;2023-10-09T08:37:52;100994.50;;;11.57;100.00
76108;BME280;64834;52.516;10.528;2023-10-09T08:40:21;101003.34;;;11.59;100.00
76108;BME280;64834;52.516;10.528;2023-10-09T08:42:52;101005.34;;;11.63;100.00
76108;BME280;64834;52.516;10.528;2023-10-09T08:45:22;101017.16;;;11.56;100.00
76108;BME280;64834;52.516;10.528;2023-10-09T08:47:56;101021.44;;;11.54;100.00
76108;BME280;64834;52.516;10.528;2023-10-09T08:50:22;101011.22;;;11.59;100.00
76108;BME280;64834;52.516;10.528;2023-10-09T08:52:48;101011.47;;;11.64;100.00
76108;BME280;64834;52.516;10.528;2023-10-09T08:55:14;101004.50;;;11.64;100.00
76108;BME280;64834;52.516;10.528;2023-10-09T08:57:44;101006.66;;;11.71;100.00
76108;BME280;64834;52.516;10.528;2023-10-09T09:00:20;101017.41;;;11.76;100.00
76108;BME280;64834;52.516;10.528;2023-10-09T09:02:50;100996.00;;;11.83;100.00
76108;BME280;64834;52.516;10.528;2023-10-09T09:05:19;100999.84;;;11.90;100.00
76108;BME280;64834;52.516;10.528;2023-10-09T09:07:49;100981.72;;;11.94;100.00
76108;BME280;64834;52.516;10.528;2023-10-09T09:10:15;100978.13;;;11.92;100.00
76108;BME280;64834;52.516;10.528;2023-10-09T09:12:47;100983.63;;;11.97;100.00
76108;BME280;64834;52.516;10.528;2023-10-09T09:15:18;100986.31;;;11.98;100.00
76108;BME280;64834;52.516;10.528;2023-10-09T09:17:44;100983.28;;;11.91;100.00
76108;BME280;64834;52.516;10.528;2023-10-09T09:20:25;100980.75;;;11.92;100.00
76108;BME280;64834;52.516;10.528;2023-10-09T09:22:56;100993.84;;;11.92;100.00
76108;BME280;64834;52.516;10.528;2023-10-09T09:25:23;100995.31;;;11.87;100.00
76108;BME280;64834;52.516;10.528;2023-10-09T09:27:56;100985.28;;;11.95;100.00
76108;BME280;64834;52.516;10.528;2023-10-09T09:30:26;100980.50;;;12.04;100.00
76108;BME280;64834;52.516;10.528;2023-10-09T09:32:58;100978.16;;;12.08;100.00
76108;BME280;64834;52.516;10.528;2023-10-09T09:35:58;100982.72;;;12.12;100.00
76108;BME280;64834;52.516;10.528;2023-10-09T09:38:27;100979.03;;;12.09;100.00
76108;BME280;64834;52.516;10.528;2023-10-09T09:40:56;100984.56;;;12.13;100.00
76108;BME280;64834;52.516;10.528;2023-10-09T09:43:22;100987.31;;;12.17;100.00
76108;BME280;64834;52.516;10.528;2023-10-09T09:45:48;100975.09;;;12.17;100.00
76108;BME280;64834;52.516;10.528;2023-10-09T09:48:16;100971.84;;;12.21;100.00
76108;BME280;64834;52.516;10.528;2023-10-09T09:50:42;100969.34;;;12.24;100.00
76108;BME280;64834;52.516;10.528;2023-10-09T09:53:15;100967.25;;;12.33;100.00
76108;BME280;64834;52.516;10.528;2023-10-09T09:55:51;100969.94;;;12.35;100.00
76108;BME280;64834;52.516;10.528;2023-10-09T09:58:21;100975.50;;;12.41;100.00
76108;BME280;64834;52.516;10.528;2023-10-09T10:00:52;100973.72;;;12.40;100.00
76108;BME280;64834;52.516;10.528;2023-10-09T10:03:29;100972.13;;;12.43;100.00
76108;BME280;64834;52.516;10.528;2023-10-09T10:05:59;100973.84;;;12.43;100.00
76108;BME280;64834;52.516;10.528;2023-10-09T10:08:29;100968.03;;;12.49;100.00
76108;BME280;64834;52.516;10.528;2023-10-09T10:10:58;100977.63;;;12.48;100.00
76108;BME280;64834;52.516;10.528;2023-10-09T10:16:08;100980.09;;;12.29;100.00
76108;BME280;64834;52.516;10.528;2023-10-09T10:18:58;100972.31;;;12.47;100.00
76108;BME280;64834;52.516;10.528;2023-10-09T10:21:36;100976.59;;;12.45;100.00
76108;BME280;64834;52.516;10.528;2023-10-09T10:29:34;100961.22;;;12.36;100.00
76108;BME280;64834;52.516;10.528;2023-10-09T10:32:02;100973.44;;;12.35;100.00
76108;BME280;64834;52.516;10.528;2023-10-09T10:37:21;100973.09;;;12.62;100.00
76108;BME280;64834;52.516;10.528;2023-10-09T10:39:54;100969.69;;;12.81;100.00
76108;BME280;64834;52.516;10.528;2023-10-09T10:42:25;100970.75;;;12.84;100.00
76108;BME280;64834;52.516;10.528;2023-10-09T10:45:02;100969.34;;;12.91;100.00
76108;BME280;64834;52.516;10.528;2023-10-09T10:47:30;100970.53;;;12.98;100.00
76108;BME280;64834;52.516;10.528;2023-10-09T10:50:00;100972.81;;;13.08;100.00
76108;BME280;64834;52.516;10.528;2023-10-09T10:52:45;100973.78;;;13.10;100.00
76108;BME280;64834;52.516;10.528;2023-10-09T10:55:22;100967.16;;;13.18;100.00
76108;BME280;64834;52.516;10.528;2023-10-09T10:57:56;100980.72;;;13.26;100.00
76108;BME280;64834;52.516;10.528;2023-10-09T11:00:30;100971.34;;;13.31;100.00
76108;BME280;64834;52.516;10.528;2023-10-09T11:03:21;100970.50;;;13.32;100.00
76108;BME280;64834;52.516;10.528;2023-10-09T11:05:55;100968.94;;;13.35;100.00
76108;BME280;64834;52.516;10.528;2023-10-09T11:08:24;100967.44;;;13.40;100.00
76108;BME280;64834;52.516;10.528;2023-10-09T11:10:52;100962.38;;;13.45;100.00
76108;BME280;64834;52.516;10.528;2023-10-09T11:13:26;100964.94;;;13.61;100.00
76108;BME280;64834;52.516;10.528;2023-10-09T11:16:04;100975.06;;;13.71;100.00
76108;BME280;64834;52.516;10.528;2023-10-09T11:18:54;100968.44;;;13.80;100.00
76108;BME280;64834;52.516;10.528;2023-10-09T11:21:22;100972.41;;;13.89;100.00
76108;BME280;64834;52.516;10.528;2023-10-09T11:23:56;100962.22;;;13.97;100.00
76108;BME280;64834;52.516;10.528;2023-10-09T11:26:46;100956.63;;;14.09;100.00
76108;BME280;64834;52.516;10.528;2023-10-09T11:29:19;100957.03;;;14.18;100.00
76108;BME280;64834;52.516;10.528;2023-10-09T11:32:04;100956.34;;;14.22;100.00
76108;BME280;64834;52.516;10.528;2023-10-09T11:34:33;100950.53;;;14.29;100.00
76108;BME280;64834;52.516;10.528;2023-10-09T11:39:35;100953.53;;;14.38;100.00
76108;BME280;64834;52.516;10.528;2023-10-09T11:42:06;100952.91;;;14.44;100.00
76108;BME280;64834;52.516;10.528;2023-10-09T11:44:41;100960.09;;;14.46;100.00
76108;BME280;64834;52.516;10.528;2023-10-09T11:47:11;100961.97;;;14.49;100.00
76108;BME280;64834;52.516;10.528;2023-10-09T11:49:56;100960.38;;;14.52;100.00
76108;BME280;64834;52.516;10.528;2023-10-09T11:52:54;100953.44;;;14.54;100.00
76108;BME280;64834;52.516;10.528;2023-10-09T11:55:33;100945.53;;;14.54;100.00
76108;BME280;64834;52.516;10.528;2023-10-09T11:57:58;100943.03;;;14.57;100.00
76108;BME280;64834;52.516;10.528;2023-10-09T12:00:24;100945.88;;;14.62;100.00
76108;BME280;64834;52.516;10.528;2023-10-09T12:02:56;100952.88;;;14.62;100.00
76108;BME280;64834;52.516;10.528;2023-10-09T12:05:21;100956.53;;;14.65;100.00
76108;BME280;64834;52.516;10.528;2023-10-09T12:07:48;100957.44;;;14.66;100.00
76108;BME280;64834;52.516;10.528;2023-10-09T12:10:22;100959.28;;;14.68;100.00
76108;BME280;64834;52.516;10.528;2023-10-09T12:12:52;100955.06;;;14.72;100.00
76108;BME280;64834;52.516;10.528;2023-10-09T12:15:17;100953.41;;;14.74;100.00
76108;BME280;64834;52.516;10.528;2023-10-09T12:17:45;100958.09;;;14.81;100.00
76108;BME280;64834;52.516;10.528;2023-10-09T12:20:15;100944.91;;;14.81;100.00
76108;BME280;64834;52.516;10.528;2023-10-09T12:22:59;100947.69;;;14.84;100.00
76108;BME280;64834;52.516;10.528;2023-10-09T12:25:25;100948.69;;;14.88;100.00
76108;BME280;64834;52.516;10.528;2023-10-09T12:27:51;100956.56;;;14.86;100.00
76108;BME280;64834;52.516;10.528;2023-10-09T12:30:19;100960.09;;;14.87;100.00
76108;BME280;64834;52.516;10.528;2023-10-09T12:32:54;100953.97;;;14.88;100.00
76108;BME280;64834;52.516;10.528;2023-10-09T12:35:20;100955.03;;;14.91;100.00
76108;BME280;64834;52.516;10.528;2023-10-09T12:37:46;100951.50;;;14.91;100.00
76108;BME280;64834;52.516;10.528;2023-10-09T12:40:12;100955.03;;;14.91;100.00
76108;BME280;64834;52.516;10.528;2023-10-09T12:42:37;100952.44;;;14.93;100.00
76108;BME280;64834;52.516;10.528;2023-10-09T12:45:03;100948.91;;;14.92;100.00
76108;BME280;64834;52.516;10.528;2023-10-09T12:47:34;100947.13;;;14.91;100.00
76108;BME280;64834;52.516;10.528;2023-10-09T12:50:04;100943.69;;;14.94;100.00
76108;BME280;64834;52.516;10.528;2023-10-09T12:52:35;100941.91;;;14.93;100.00
76108;BME280;64834;52.516;10.528;2023-10-09T12:55:02;100942.16;;;14.99;100.00
76108;BME280;64834;52.516;10.528;2023-10-09T12:57:31;100944.09;;;15.03;100.00
76108;BME280;64834;52.516;10.528;2023-10-09T12:59:57;100937.00;;;15.02;100.00
76108;BME280;64834;52.516;10.528;2023-10-09T13:02:22;100941.50;;;15.04;100.00
76108;BME280;64834;52.516;10.528;2023-10-09T13:04:57;100951.38;;;15.08;100.00
76108;BME280;64834;52.516;10.528;2023-10-09T13:07:22;100937.19;;;15.06;100.00
76108;BME280;64834;52.516;10.528;2023-10-09T13:09:48;100939.00;;;15.07;100.00
76108;BME280;64834;52.516;10.528;2023-10-09T13:12:34;100939.06;;;15.09;100.00
76108;BME280;64834;52.516;10.528;2023-10-09T13:15:04;100947.03;;;15.10;100.00
76108;BME280;64834;52.516;10.528;2023-10-09T13:17:34;100949.53;;;15.07;100.00
76108;BME280;64834;52.516;10.528;2023-10-09T13:19:59;100946.16;;;15.10;100.00
76108;BME280;64834;52.516;10.528;2023-10-09T13:22:24;100947.94;;;15.11;100.00
76108;BME280;64834;52.516;10.528;2023-10-09T13:24:50;100946.16;;;15.10;100.00